createdAt,value
2023-11-23T00:00:10.612Z,80.94
2023-11-23T00:02:37.710Z,80.74
2023-11-23T00:05:05.347Z,78.58
2023-11-23T00:07:33.065Z,81.25
2023-11-23T00:10:00.013Z,79.25
2023-11-23T00:12:26.499Z,81.49
2023-11-23T00:14:53.076Z,79.47
2023-11-23T00:17:19.869Z,77.64
2023-11-23T00:19:49.671Z,79.04
2023-11-23T00:22:16.587Z,80.83
2023-11-23T00:24:43.262Z,82.03
2023-11-23T00:27:09.978Z,81.34
2023-11-23T00:29:36.526Z,81.01
2023-11-23T00:32:03.398Z,78.29
2023-11-23T00:34:29.918Z,79.50
2023-11-23T00:36:57.117Z,80.51
2023-11-23T00:39:23.623Z,82.65
2023-11-23T00:41:50.426Z,82.88
2023-11-23T00:44:18.152Z,82.05
2023-11-23T00:46:44.742Z,79.72
2023-11-23T00:49:11.929Z,81.22
2023-11-23T00:51:38.377Z,79.52
2023-11-23T00:54:07.777Z,80.06
2023-11-23T00:56:34.203Z,79.43
2023-11-23T00:59:15.962Z,82.53
2023-11-23T01:01:42.586Z,79.96
2023-11-23T01:04:09.388Z,83.33
2023-11-23T01:06:35.934Z,81.57
2023-11-23T01:09:02.452Z,82.81
2023-11-23T01:11:29.702Z,82.04
2023-11-23T01:13:56.265Z,83.60
2023-11-23T01:16:22.644Z,79.86
2023-11-23T01:18:49.096Z,79.62
2023-11-23T01:21:15.589Z,81.09
2023-11-23T01:23:42.055Z,82.11
2023-11-23T01:26:08.474Z,82.83
2023-11-23T01:28:35.289Z,83.12
2023-11-23T01:31:01.652Z,81.03
2023-11-23T01:33:28.112Z,80.52
2023-11-23T01:35:54.723Z,83.79
2023-11-23T01:38:21.779Z,80.52
2023-11-23T01:40:48.170Z,82.32
2023-11-23T01:43:14.674Z,80.44
2023-11-23T01:45:41.111Z,81.16
2023-11-23T01:48:07.755Z,82.47
2023-11-23T01:50:34.956Z,82.79
2023-11-23T01:53:02.452Z,82.12
2023-11-23T01:55:41.355Z,82.92
2023-11-23T01:58:09.752Z,81.96
2023-11-23T02:00:37.930Z,80.18
2023-11-23T02:03:05.536Z,82.54
2023-11-23T02:05:32.052Z,82.40
2023-11-23T02:07:58.486Z,81.61
2023-11-23T02:10:24.966Z,83.05
2023-11-23T02:12:51.645Z,82.15
2023-11-23T02:15:19.984Z,82.12
2023-11-23T02:17:47.165Z,81.19
2023-11-23T02:20:14.943Z,82.45
2023-11-23T02:22:41.449Z,83.95
2023-11-23T02:25:08.318Z,82.50
2023-11-23T02:27:37.844Z,84.94
2023-11-23T02:30:07.009Z,86.44
2023-11-23T02:32:33.698Z,83.59
2023-11-23T02:35:00.284Z,83.04
2023-11-23T02:37:26.825Z,80.67
2023-11-23T02:39:53.212Z,81.85
2023-11-23T02:42:19.633Z,80.56
2023-11-23T02:44:46.067Z,81.08
2023-11-23T02:47:12.466Z,81.55
2023-11-23T02:49:38.837Z,82.69
2023-11-23T02:52:06.103Z,82.96
2023-11-23T02:54:32.638Z,80.84
2023-11-23T02:56:59.084Z,82.60
2023-11-23T02:59:25.505Z,81.39
2023-11-23T03:01:52.030Z,80.78
2023-11-23T03:04:18.520Z,80.81
2023-11-23T03:06:45.041Z,82.51
2023-11-23T03:09:12.076Z,82.71
2023-11-23T03:11:38.512Z,80.23
2023-11-23T03:14:05.125Z,82.02
2023-11-23T03:16:31.810Z,81.24
2023-11-23T03:19:01.300Z,83.42
2023-11-23T03:21:27.765Z,83.00
2023-11-23T03:23:54.294Z,82.70
2023-11-23T03:26:20.685Z,82.82
2023-11-23T03:28:47.068Z,81.64
2023-11-23T03:31:13.606Z,82.87
2023-11-23T03:33:40.058Z,83.76
2023-11-23T03:36:06.996Z,84.45
2023-11-23T03:38:34.300Z,83.96
2023-11-23T03:41:01.267Z,84.31
2023-11-23T03:43:27.788Z,85.34
2023-11-23T03:45:55.666Z,82.56
2023-11-23T03:48:23.083Z,83.92
2023-11-23T03:50:49.606Z,83.46
2023-11-23T03:53:16.013Z,85.60
2023-11-23T03:55:42.561Z,83.26
2023-11-23T03:58:09.025Z,82.46
2023-11-23T04:00:35.950Z,81.95
2023-11-23T04:03:03.437Z,84.11
2023-11-23T04:05:30.271Z,83.88
2023-11-23T04:07:56.676Z,85.07
2023-11-23T04:10:23.167Z,84.22
2023-11-23T04:12:51.806Z,85.35
2023-11-23T04:15:18.668Z,85.34
2023-11-23T04:17:45.399Z,83.87
2023-11-23T04:20:12.041Z,85.59
2023-11-23T04:22:38.557Z,86.18
2023-11-23T04:25:05.496Z,84.64
2023-11-23T04:27:31.919Z,83.81
2023-11-23T04:29:59.883Z,86.04
2023-11-23T04:32:27.610Z,86.50
2023-11-23T04:34:54.047Z,83.74
2023-11-23T04:37:25.089Z,84.96
2023-11-23T04:39:52.553Z,82.82
2023-11-23T04:42:19.625Z,84.50
2023-11-23T04:44:46.925Z,84.82
2023-11-23T04:47:13.923Z,84.68
2023-11-23T04:49:40.525Z,83.84
2023-11-23T04:52:08.766Z,86.51
2023-11-23T04:54:42.131Z,84.05
2023-11-23T04:57:08.604Z,84.28
2023-11-23T04:59:34.970Z,86.15
2023-11-23T05:02:01.659Z,84.96
2023-11-23T05:04:28.182Z,86.08
2023-11-23T05:06:56.960Z,86.33
2023-11-23T05:09:23.957Z,86.10
2023-11-23T05:11:50.443Z,86.25
2023-11-23T05:14:18.142Z,84.96
2023-11-23T05:16:44.708Z,86.10
2023-11-23T05:19:11.107Z,84.48
2023-11-23T05:21:38.134Z,87.32
2023-11-23T05:24:05.758Z,86.01
2023-11-23T05:26:32.386Z,85.53
2023-11-23T05:28:58.733Z,84.94
2023-11-23T05:31:30.333Z,85.21
2023-11-23T05:33:56.825Z,84.63
2023-11-23T05:36:23.604Z,83.12
2023-11-23T05:38:50.108Z,83.91
2023-11-23T05:41:16.551Z,85.40
2023-11-23T05:43:43.068Z,88.38
2023-11-23T05:46:11.779Z,84.14
2023-11-23T05:48:39.595Z,87.81
2023-11-23T05:51:06.125Z,84.33
2023-11-23T05:53:32.929Z,87.27
2023-11-23T05:55:59.385Z,87.72
2023-11-23T05:58:25.920Z,86.40
2023-11-23T06:01:03.058Z,84.99
2023-11-23T06:03:36.702Z,88.01
2023-11-23T06:06:03.398Z,86.75
2023-11-23T06:08:29.863Z,86.72
2023-11-23T06:10:56.193Z,85.69
2023-11-23T06:13:29.578Z,85.92
2023-11-23T06:15:55.987Z,85.12
2023-11-23T06:18:22.668Z,84.70
2023-11-23T06:20:49.322Z,85.75
2023-11-23T06:23:15.695Z,82.36
2023-11-23T06:25:42.111Z,84.67
2023-11-23T06:28:14.939Z,85.39
2023-11-23T06:30:44.251Z,86.33
2023-11-23T06:33:10.804Z,84.60
2023-11-23T06:35:37.247Z,84.74
2023-11-23T06:38:04.417Z,85.71
2023-11-23T06:40:30.945Z,82.80
2023-11-23T06:42:57.328Z,84.15
2023-11-23T06:45:23.899Z,84.36
2023-11-23T06:47:50.364Z,83.20
2023-11-23T06:50:16.894Z,83.24
2023-11-23T06:52:43.445Z,84.52
2023-11-23T06:55:10.595Z,85.58
2023-11-23T06:57:40.932Z,85.19
2023-11-23T07:00:17.577Z,82.76
2023-11-23T07:02:44.145Z,82.40
2023-11-23T07:05:11.924Z,82.64
2023-11-23T07:07:39.506Z,82.21
2023-11-23T07:10:07.425Z,81.43
2023-11-23T07:12:33.839Z,83.72
2023-11-23T07:15:00.359Z,82.88
2023-11-23T07:17:26.886Z,84.49
2023-11-23T07:19:53.408Z,82.66
2023-11-23T07:22:19.857Z,83.53
2023-11-23T07:24:46.318Z,84.61
2023-11-23T07:27:12.795Z,82.09
2023-11-23T07:29:39.257Z,81.60
2023-11-23T07:32:06.421Z,82.81
2023-11-23T07:34:32.792Z,83.17
2023-11-23T07:36:59.189Z,81.17
2023-11-23T07:39:25.745Z,82.62
2023-11-23T07:41:53.082Z,83.14
2023-11-23T07:44:22.024Z,81.41
2023-11-23T07:46:48.487Z,85.14
2023-11-23T07:49:15.106Z,81.62
2023-11-23T07:51:41.542Z,82.89
2023-11-23T07:54:08.024Z,81.34
2023-11-23T07:56:34.443Z,83.79
2023-11-23T07:59:00.880Z,85.40
2023-11-23T08:01:27.744Z,84.38
2023-11-23T08:03:54.391Z,83.96
2023-11-23T08:06:21.248Z,83.86
2023-11-23T08:08:48.595Z,84.16
2023-11-23T08:11:17.147Z,85.08
2023-11-23T08:13:43.566Z,84.48
2023-11-23T08:16:09.993Z,83.29
2023-11-23T08:18:43.092Z,84.71
2023-11-23T08:21:13.680Z,82.30
2023-11-23T08:23:40.298Z,83.65
2023-11-23T08:26:12.196Z,85.13
2023-11-23T08:28:44.388Z,84.04
2023-11-23T08:31:11.201Z,83.25
2023-11-23T08:33:38.494Z,83.24
2023-11-23T08:36:05.470Z,83.24
2023-11-23T08:38:31.851Z,81.89
2023-11-23T08:40:58.328Z,84.51
2023-11-23T08:43:27.795Z,81.01
2023-11-23T08:45:54.309Z,82.26
2023-11-23T08:48:25.703Z,81.45
2023-11-23T08:50:52.265Z,82.40
2023-11-23T08:53:21.461Z,81.24
2023-11-23T08:55:49.700Z,79.13
2023-11-23T08:58:24.161Z,81.17
2023-11-23T09:00:50.925Z,81.08
2023-11-23T09:03:18.526Z,81.83
2023-11-23T09:05:50.850Z,80.26
2023-11-23T09:08:17.247Z,79.54
2023-11-23T09:10:45.214Z,81.50
2023-11-23T09:13:18.500Z,79.93
2023-11-23T09:15:45.119Z,82.02
2023-11-23T09:18:11.975Z,78.98
2023-11-23T09:20:38.487Z,79.77
2023-11-23T09:23:04.950Z,78.94
2023-11-23T09:25:36.095Z,83.13
2023-11-23T09:28:02.658Z,81.18
2023-11-23T09:30:29.264Z,81.18
2023-11-23T09:32:58.237Z,83.78
2023-11-23T09:35:24.941Z,84.67
2023-11-23T09:37:54.390Z,79.95
2023-11-23T09:40:27.269Z,80.83
2023-11-23T09:42:53.653Z,81.25
2023-11-23T09:45:26.856Z,81.97
2023-11-23T09:48:52.797Z,83.20
2023-11-23T09:51:24.016Z,80.88
2023-11-23T09:57:25.618Z,81.83
2023-11-23T09:59:54.952Z,84.20
2023-11-23T10:02:25.148Z,82.74
2023-11-23T10:04:53.700Z,82.87
2023-11-23T10:07:21.234Z,83.96
2023-11-23T10:09:47.711Z,82.89
2023-11-23T10:12:17.225Z,85.23
2023-11-23T10:14:46.785Z,84.81
2023-11-23T10:17:22.398Z,84.26
2023-11-23T10:19:53.317Z,82.58
2023-11-23T10:22:19.708Z,85.23
2023-11-23T10:24:49.685Z,83.10
2023-11-23T10:27:17.568Z,82.30
2023-11-23T10:29:44.024Z,81.86
2023-11-23T10:32:11.073Z,82.96
2023-11-23T10:34:41.780Z,81.18
2023-11-23T10:37:09.167Z,79.13
2023-11-23T10:39:35.789Z,82.46
2023-11-23T10:42:04.330Z,82.11
2023-11-23T10:44:33.202Z,80.62
2023-11-23T10:47:04.570Z,83.49
2023-11-23T10:49:36.369Z,78.49
2023-11-23T10:52:04.346Z,81.66
2023-11-23T10:54:30.804Z,82.26
2023-11-23T10:56:59.014Z,81.63
2023-11-23T10:59:25.453Z,80.55
2023-11-23T11:01:54.369Z,81.74
2023-11-23T11:04:20.800Z,80.67
2023-11-23T11:06:48.723Z,82.75
2023-11-23T11:09:17.041Z,80.78
2023-11-23T11:11:56.959Z,81.39
2023-11-23T11:14:34.316Z,83.72
2023-11-23T11:17:07.691Z,83.11
2023-11-23T11:19:44.761Z,84.66
2023-11-23T11:22:15.241Z,83.15
2023-11-23T11:24:42.537Z,82.04
2023-11-23T11:27:13.496Z,80.18
2023-11-23T11:29:51.339Z,81.82
2023-11-23T11:32:18.961Z,79.37
2023-11-23T11:34:45.337Z,83.21
2023-11-23T11:37:12.378Z,81.59
2023-11-23T11:39:40.548Z,80.42
2023-11-23T11:42:08.218Z,78.92
2023-11-23T11:44:35.593Z,79.09
2023-11-23T11:47:02.570Z,79.13
2023-11-23T11:49:29.227Z,81.83
2023-11-23T11:51:55.632Z,80.12
2023-11-23T11:54:24.048Z,81.56
2023-11-23T11:56:50.913Z,80.45
2023-11-23T11:59:18.547Z,80.61
2023-11-23T12:01:45.125Z,83.05
2023-11-23T12:04:16.524Z,81.91
2023-11-23T12:06:46.057Z,83.58
2023-11-23T12:09:27.885Z,84.52
2023-11-23T12:12:11.232Z,85.25
2023-11-23T12:14:37.922Z,84.34
2023-11-23T12:17:11.473Z,84.72
2023-11-23T12:19:38.731Z,84.77
2023-11-23T12:22:05.119Z,85.12
2023-11-23T12:24:31.861Z,84.32
2023-11-23T12:26:58.509Z,86.07
2023-11-23T12:29:26.835Z,87.53
2023-11-23T12:31:53.471Z,84.89
2023-11-23T12:34:24.248Z,84.28
2023-11-23T12:36:50.727Z,87.26
2023-11-23T12:39:17.191Z,85.73
2023-11-23T12:41:52.787Z,85.07
2023-11-23T12:44:21.938Z,83.84
2023-11-23T12:46:48.501Z,85.86
2023-11-23T12:49:18.672Z,87.77
2023-11-23T12:51:45.734Z,88.64
2023-11-23T12:54:12.238Z,89.15
2023-11-23T12:56:39.146Z,86.38
2023-11-23T12:59:08.487Z,85.53
2023-11-23T13:01:40.364Z,84.68
2023-11-23T13:04:09.094Z,86.13
2023-11-23T13:06:36.562Z,86.91
2023-11-23T13:09:04.757Z,86.34
2023-11-23T13:11:31.220Z,87.30
2023-11-23T13:13:57.732Z,86.71
2023-11-23T13:16:24.912Z,88.18
2023-11-23T13:19:06.264Z,89.64
2023-11-23T13:21:39.545Z,87.55
2023-11-23T13:24:07.816Z,86.53
2023-11-23T13:26:34.559Z,86.38
2023-11-23T13:29:01.188Z,87.18
2023-11-23T13:31:28.647Z,90.79
2023-11-23T13:33:55.376Z,86.65
2023-11-23T13:36:21.825Z,87.91
2023-11-23T13:38:50.270Z,88.54
2023-11-23T13:41:16.897Z,88.44
2023-11-23T13:43:43.809Z,89.20
2023-11-23T13:46:10.510Z,88.85
2023-11-23T13:48:37.061Z,91.25
2023-11-23T13:51:04.787Z,89.56
2023-11-23T13:53:31.209Z,88.45
2023-11-23T13:55:57.969Z,88.84
2023-11-23T13:58:26.936Z,89.82
2023-11-23T14:00:53.602Z,88.99
2023-11-23T14:03:20.069Z,90.06
2023-11-23T14:05:47.176Z,87.43
2023-11-23T14:08:15.212Z,88.73
2023-11-23T14:10:49.676Z,87.05
2023-11-23T14:13:16.804Z,88.21
2023-11-23T14:15:43.338Z,89.18
2023-11-23T14:18:11.747Z,89.76
2023-11-23T14:20:38.867Z,89.56
2023-11-23T14:23:06.735Z,88.54
2023-11-23T14:25:33.117Z,88.45
2023-11-23T14:28:00.293Z,90.85
2023-11-23T14:30:28.503Z,88.77
2023-11-23T14:32:55.047Z,88.42
2023-11-23T14:35:22.571Z,86.93
2023-11-23T14:37:51.085Z,87.38
2023-11-23T14:40:20.111Z,90.13
2023-11-23T14:42:56.283Z,90.64
2023-11-23T14:45:25.289Z,88.45
2023-11-23T14:47:53.505Z,89.61
2023-11-23T14:50:20.968Z,87.82
2023-11-23T14:52:47.528Z,86.58
2023-11-23T14:55:16.840Z,88.60
2023-11-23T14:57:43.305Z,88.03
2023-11-23T15:00:10.713Z,89.09
2023-11-23T15:02:40.750Z,90.21
2023-11-23T15:05:09.064Z,89.90
2023-11-23T15:07:35.403Z,90.85
2023-11-23T15:10:03.696Z,90.42
2023-11-23T15:12:30.099Z,91.12
2023-11-23T15:14:57.384Z,92.09
2023-11-23T15:17:26.920Z,90.11
2023-11-23T15:19:53.672Z,91.13
2023-11-23T15:22:21.899Z,91.79
2023-11-23T15:24:57.527Z,89.13
2023-11-23T15:27:30.559Z,90.24
2023-11-23T15:29:58.906Z,89.40
2023-11-23T15:32:28.605Z,87.97
2023-11-23T15:34:57.260Z,91.73
2023-11-23T15:37:24.646Z,89.55
2023-11-23T15:39:51.164Z,91.63
2023-11-23T15:42:17.799Z,92.19
2023-11-23T15:44:44.332Z,91.72
2023-11-23T15:47:13.176Z,87.56
2023-11-23T15:49:39.602Z,89.91
2023-11-23T15:52:07.338Z,88.78
2023-11-23T15:54:34.441Z,88.75
2023-11-23T15:57:01.400Z,88.00
2023-11-23T15:59:28.165Z,88.67
2023-11-23T16:01:54.716Z,88.15
2023-11-23T16:04:22.191Z,89.11
2023-11-23T16:06:49.240Z,89.56
2023-11-23T16:09:16.884Z,88.87
2023-11-23T16:11:45.522Z,88.78
2023-11-23T16:14:12.851Z,89.46
2023-11-23T16:16:39.522Z,85.59
2023-11-23T16:19:06.348Z,85.00
2023-11-23T16:21:32.729Z,87.62
2023-11-23T16:23:59.202Z,87.74
2023-11-23T16:26:26.111Z,87.72
2023-11-23T16:28:52.853Z,86.59
2023-11-23T16:31:19.229Z,85.46
2023-11-23T16:33:45.650Z,82.94
2023-11-23T16:36:26.480Z,82.43
2023-11-23T16:39:00.727Z,81.02
2023-11-23T16:41:28.773Z,79.39
2023-11-23T16:43:55.174Z,76.82
2023-11-23T16:46:21.651Z,76.60
2023-11-23T16:48:48.106Z,77.03
2023-11-23T16:51:19.920Z,75.76
2023-11-23T16:53:46.378Z,77.60
2023-11-23T16:56:13.608Z,76.15
2023-11-23T16:58:41.828Z,76.56
2023-11-23T17:01:08.184Z,76.49
2023-11-23T17:03:34.775Z,77.65
2023-11-23T17:06:01.768Z,79.17
2023-11-23T17:08:28.914Z,78.92
2023-11-23T17:10:55.830Z,80.69
2023-11-23T17:13:24.136Z,80.52
2023-11-23T17:15:50.972Z,81.79
2023-11-23T17:18:17.525Z,82.47
2023-11-23T17:20:44.001Z,81.52
2023-11-23T17:23:11.857Z,83.00
2023-11-23T17:25:40.300Z,81.67
2023-11-23T17:28:07.605Z,80.34
2023-11-23T17:30:39.129Z,80.77
2023-11-23T17:33:05.581Z,80.12
2023-11-23T17:35:31.977Z,78.95
2023-11-23T17:37:58.416Z,77.05
2023-11-23T17:40:24.888Z,77.95
2023-11-23T17:42:51.579Z,77.69
2023-11-23T17:45:18.387Z,77.54
2023-11-23T17:47:45.356Z,78.17
2023-11-23T17:50:13.391Z,77.27
2023-11-23T17:52:40.195Z,77.70
2023-11-23T17:55:07.488Z,75.79
2023-11-23T17:57:35.531Z,75.28
2023-11-23T18:00:06.954Z,74.77
2023-11-23T18:02:34.588Z,74.01
2023-11-23T18:05:01.144Z,73.23
2023-11-23T18:07:27.483Z,72.57
2023-11-23T18:09:53.902Z,73.51
2023-11-23T18:12:20.391Z,71.74
2023-11-23T18:14:46.798Z,72.50
2023-11-23T18:17:13.284Z,72.88
2023-11-23T18:19:39.697Z,72.20
2023-11-23T18:22:06.397Z,74.45
2023-11-23T18:24:34.378Z,74.80
2023-11-23T18:27:04.790Z,73.10
2023-11-23T18:29:31.838Z,74.06
2023-11-23T18:31:58.419Z,74.47
2023-11-23T18:34:25.891Z,74.46
2023-11-23T18:36:52.696Z,73.36
2023-11-23T18:39:20.676Z,72.15
2023-11-23T18:41:47.124Z,74.26
2023-11-23T18:44:14.019Z,73.26
2023-11-23T18:46:40.541Z,72.04
2023-11-23T18:49:07.684Z,71.43
2023-11-23T18:51:34.094Z,72.53
2023-11-23T18:54:02.085Z,71.66
2023-11-23T18:56:29.695Z,71.58
2023-11-23T18:58:58.176Z,71.45
2023-11-23T19:01:25.459Z,71.53
2023-11-23T19:03:52.352Z,72.63
2023-11-23T19:06:19.076Z,72.74
2023-11-23T19:08:46.658Z,70.76
2023-11-23T19:11:14.972Z,71.19
2023-11-23T19:13:41.857Z,70.46
2023-11-23T19:16:11.405Z,69.25
2023-11-23T19:18:39.249Z,69.69
2023-11-23T19:21:07.516Z,70.13
2023-11-23T19:23:34.754Z,70.26
2023-11-23T19:26:03.162Z,71.16
2023-11-23T19:28:29.930Z,70.91
2023-11-23T19:31:03.029Z,71.34
2023-11-23T19:33:31.759Z,72.09
2023-11-23T19:35:59.004Z,70.14
2023-11-23T19:38:26.018Z,70.09
2023-11-23T19:40:54.792Z,71.20
2023-11-23T19:43:21.694Z,70.60
2023-11-23T19:45:48.780Z,71.76
2023-11-23T19:48:16.247Z,70.87
2023-11-23T19:50:43.003Z,70.64
2023-11-23T19:53:13.009Z,72.18
2023-11-23T19:55:39.353Z,71.26
2023-11-23T19:58:06.478Z,70.98
2023-11-23T20:00:32.944Z,73.05
2023-11-23T20:03:00.222Z,71.59
2023-11-23T20:05:26.714Z,72.56
2023-11-23T20:07:54.864Z,70.86
2023-11-23T20:10:22.265Z,71.77
2023-11-23T20:12:49.190Z,71.91
2023-11-23T20:15:15.650Z,72.50
2023-11-23T20:17:42.086Z,72.27
2023-11-23T20:20:11.112Z,71.38
2023-11-23T20:22:37.486Z,72.38
2023-11-23T20:25:05.392Z,72.84
2023-11-23T20:27:32.223Z,74.27
2023-11-23T20:29:59.325Z,73.86
2023-11-23T20:32:26.556Z,71.50
2023-11-23T20:34:53.715Z,70.11
2023-11-23T20:37:20.713Z,69.58
2023-11-23T20:39:49.088Z,69.05
2023-11-23T20:42:19.268Z,68.90
2023-11-23T20:44:46.069Z,68.92
2023-11-23T20:47:13.212Z,68.89
2023-11-23T20:49:40.766Z,69.94
2023-11-23T20:52:07.995Z,69.89
2023-11-23T20:54:35.057Z,70.06
2023-11-23T20:57:01.902Z,67.94
2023-11-23T20:59:28.553Z,67.33
2023-11-23T21:01:55.502Z,66.44
2023-11-23T21:04:27.263Z,66.39
2023-11-23T21:07:01.768Z,65.02
2023-11-23T21:09:29.304Z,65.99
2023-11-23T21:11:55.998Z,66.70
2023-11-23T21:14:23.273Z,65.93
2023-11-23T21:16:49.615Z,66.03
2023-11-23T21:19:16.008Z,65.28
2023-11-23T21:21:43.582Z,66.53
2023-11-23T21:24:11.428Z,67.82
2023-11-23T21:26:37.786Z,67.92
2023-11-23T21:29:04.426Z,67.40
2023-11-23T21:31:30.929Z,67.77
2023-11-23T21:33:59.008Z,67.76
2023-11-23T21:36:27.145Z,68.46
2023-11-23T21:38:53.582Z,67.52
2023-11-23T21:41:20.074Z,68.14
2023-11-23T21:43:46.525Z,67.27
2023-11-23T21:46:20.159Z,67.36
2023-11-23T21:48:48.092Z,66.80
2023-11-23T21:51:23.153Z,67.22
2023-11-23T21:53:50.439Z,67.52
2023-11-23T21:56:17.103Z,67.70
2023-11-23T21:58:43.596Z,67.69
2023-11-23T22:01:10.392Z,68.11
2023-11-23T22:03:37.039Z,69.02
2023-11-23T22:06:03.795Z,68.72
2023-11-23T22:08:30.141Z,67.49
2023-11-23T22:10:57.767Z,69.06
2023-11-23T22:13:24.159Z,69.06
2023-11-23T22:15:50.688Z,68.24
2023-11-23T22:18:17.362Z,68.14
2023-11-23T22:20:43.907Z,68.56
2023-11-23T22:23:10.544Z,71.96
2023-11-23T22:25:37.174Z,72.86
2023-11-23T22:28:05.109Z,71.26
2023-11-23T22:30:32.417Z,70.65
2023-11-23T22:33:00.876Z,71.04
2023-11-23T22:35:27.610Z,70.75
2023-11-23T22:37:54.736Z,72.20
2023-11-23T22:40:21.688Z,74.30
2023-11-23T22:42:49.205Z,80.21
2023-11-23T22:45:16.005Z,80.98
2023-11-23T22:47:42.525Z,79.55
2023-11-23T22:50:10.165Z,80.76
2023-11-23T22:52:36.760Z,79.48
2023-11-23T22:55:03.718Z,78.89
2023-11-23T22:57:30.191Z,79.62
2023-11-23T22:59:56.549Z,79.49
2023-11-23T23:02:24.189Z,80.55
2023-11-23T23:04:52.552Z,80.23
2023-11-23T23:07:22.290Z,77.79
2023-11-23T23:09:48.738Z,78.37
2023-11-23T23:12:15.221Z,77.24
2023-11-23T23:14:41.616Z,77.13
2023-11-23T23:17:08.039Z,76.61
2023-11-23T23:19:34.874Z,77.13
2023-11-23T23:22:01.589Z,75.82
2023-11-23T23:24:28.051Z,74.83
2023-11-23T23:26:54.419Z,75.95
2023-11-23T23:29:21.614Z,76.65
2023-11-23T23:31:48.054Z,75.61
2023-11-23T23:34:15.355Z,75.50
2023-11-23T23:36:42.383Z,73.77
2023-11-23T23:39:08.965Z,73.09
2023-11-23T23:41:35.532Z,73.72
2023-11-23T23:44:01.872Z,74.37
2023-11-23T23:46:28.365Z,74.41
2023-11-23T23:48:54.795Z,73.41
2023-11-23T23:51:21.195Z,72.99
2023-11-23T23:53:47.587Z,71.66
2023-11-23T23:56:13.936Z,71.72
2023-11-23T23:58:40.297Z,71.38
